Madison Plateau, WY

4:36 AM MDT on April 25, 2017 (GMT -0600)
Yellowstone | | Change Station
Active Advisory: Winter Weather Advisory

Elev 6650 ft 44.69 °N, 111.12 °W | Updated 26 minutes ago

Snow
Snow
32 °F
Feels Like 29 °F
N
4
Wind Variable Wind from SW

Today
High -- | Low -- °F
--% Chance of Precip.
Yesterday
High -- | Low -- °F
Precip. -- in
Pressure 29.64 in
Visibility 3.0 miles
Clouds Scattered Clouds 300 ft
Mostly Cloudy 4800 ft
Mostly Cloudy 5500 ft
Windchill 29 °F
Dew Point 32 °F
Humidity 100%
Rainfall 0.14 in
Snow Depth Not available.
6:23 AM 8:21 PM
Waning Crescent, 2% visible
METAR KWYS 251010Z AUTO 22003KT 3SM -SN SCT003 BKN048 BKN055 00/00 A2964 RMK AO2 P0001
Pressure 29.64 in
Visibility 3.0 miles
Clouds Scattered Clouds 300 ft
Mostly Cloudy 4800 ft
Mostly Cloudy 5500 ft
Windchill 29 °F
Dew Point 32 °F
Humidity 100%
Rainfall 0.14 in
Snow Depth Not available.
6:23 AM 8:21 PM
Waning Crescent, 2% visible
METAR KWYS 251010Z AUTO 22003KT 3SM -SN SCT003 BKN048 BKN055 00/00 A2964 RMK AO2 P0001

Get Your Daily Forecast Email!

Thanks for signing up!

Be on the lookout for a verification email in your inbox.

You'll start receiving severe weather alerts in your inbox..

×

10-Day Weather Forecast

Almanac

Astronomy

Apr. 25, 2017 Rise Set
Actual Time
Civil Twilight
Nautical Twilight
Astronomical Twilight
Moon
Length of Visible Light
Length of Day
Tomorrow will be .
, % of the Moon is Illuminated

Today's Extremes

State Highs State Lows

Community

WunderPhotos

WunderBlog® & News

Nearby

Air Quality

  Air Quality AQ Index Pollutant
Not available.

Snow Depth

Station Depth Elevation

Earthquake Activity

City Distance Mag. Time & Date
Minimum magnitude displayed is 2.5.

Coastal Water Temperatures

Place Temperature

Stations

Nearby Weather Stations

Station Location Temp. Windchill Dew Point Humidity Wind Precip. Elev Updated Type
                   

Watches & Warnings

Winter Weather Advisory
Issued: 2:20 AM MDT Apr. 25, 2017 – National Weather Service

... Winter Weather Advisory remains in effect until noon MDT
today...

* timing... occasional snow will continue this morning before
tapering off.

* Total snowfall... 4 to 10 inches.

* Main impacts... highways will become slick and snow covered,
including chief Joseph Highway. Visibility could be reduced to
under one half mile at times.

Precautionary/preparedness actions...

A Winter Weather Advisory for snow means periods of snow will
cause primarily travel difficulties. Be prepared for snow covered
and slick roads with limited visibilities. Slow down, and allow
extra time to reach your destination. Check the latest Road
conditions at wyoroad.Info or by dialing 5 1 1.